createdAt,value
2018-11-29T00:01:38.517Z,5.80
2018-11-29T00:03:42.741Z,5.80
2018-11-29T00:05:46.871Z,5.90
2018-11-29T00:07:58.946Z,5.90
2018-11-29T00:10:04.219Z,5.90
2018-11-29T00:12:08.756Z,5.90
2018-11-29T00:14:12.982Z,5.90
2018-11-29T00:16:17.139Z,5.90
2018-11-29T00:18:21.369Z,5.90
2018-11-29T00:20:26.364Z,5.90
2018-11-29T00:22:30.600Z,5.90
2018-11-29T00:24:34.901Z,5.90
2018-11-29T00:26:40.019Z,5.90
2018-11-29T00:28:44.968Z,5.90
2018-11-29T00:30:49.201Z,6.00
2018-11-29T00:32:54.567Z,6.00
2018-11-29T00:34:58.794Z,5.90
2018-11-29T00:37:02.994Z,5.90
2018-11-29T00:39:08.581Z,6.00
2018-11-29T00:41:12.992Z,6.00
2018-11-29T00:43:19.554Z,6.00
2018-11-29T00:45:24.469Z,6.00
2018-11-29T00:47:28.885Z,6.00
2018-11-29T00:49:33.120Z,6.00
2018-11-29T00:51:37.417Z,6.10
2018-11-29T00:53:43.140Z,6.00
2018-11-29T00:55:49.681Z,6.00
2018-11-29T00:57:53.917Z,6.10
2018-11-29T00:59:58.159Z,6.00
2018-11-29T01:02:02.370Z,6.10
2018-11-29T01:04:06.666Z,6.00
2018-11-29T01:06:10.874Z,6.00
2018-11-29T01:08:15.068Z,6.00
2018-11-29T01:10:19.818Z,6.10
2018-11-29T01:12:24.045Z,6.10
2018-11-29T01:14:28.353Z,6.10
2018-11-29T01:16:34.724Z,6.10
2018-11-29T01:18:38.905Z,6.10
2018-11-29T01:20:43.271Z,6.10
2018-11-29T01:22:47.940Z,6.10
2018-11-29T01:24:52.160Z,6.10
2018-11-29T01:26:56.358Z,6.10
2018-11-29T01:29:02.178Z,6.10
2018-11-29T01:31:06.414Z,6.10
2018-11-29T01:33:10.612Z,6.10
2018-11-29T01:35:17.383Z,6.10
2018-11-29T01:37:22.111Z,6.10
2018-11-29T01:39:26.507Z,6.10
2018-11-29T01:41:30.974Z,6.10
2018-11-29T01:43:35.149Z,6.20
2018-11-29T01:45:39.351Z,6.20
2018-11-29T01:47:43.705Z,6.10
2018-11-29T01:49:48.638Z,6.20
2018-11-29T01:51:52.825Z,6.20
2018-11-29T01:53:57.040Z,6.20
2018-11-29T01:56:01.278Z,6.10
2018-11-29T01:58:05.765Z,6.10
2018-11-29T02:00:13.302Z,6.20
2018-11-29T02:02:17.760Z,6.20
2018-11-29T02:04:21.969Z,6.20
2018-11-29T02:06:26.204Z,6.20
2018-11-29T02:08:30.452Z,6.20
2018-11-29T02:10:39.717Z,6.20
2018-11-29T02:12:44.005Z,6.20
2018-11-29T02:14:48.141Z,6.20
2018-11-29T02:16:52.437Z,6.20
2018-11-29T02:18:56.623Z,6.30
2018-11-29T02:21:00.878Z,6.30
2018-11-29T02:23:05.101Z,6.30
2018-11-29T02:25:09.316Z,6.30
2018-11-29T02:27:13.487Z,6.30
2018-11-29T02:29:17.685Z,6.30
2018-11-29T02:31:21.876Z,6.20
2018-11-29T02:33:26.083Z,6.30
2018-11-29T02:35:30.276Z,6.30
2018-11-29T02:37:34.469Z,6.30
2018-11-29T02:39:38.669Z,6.30
2018-11-29T02:41:42.872Z,6.30
2018-11-29T02:43:47.129Z,6.30
2018-11-29T02:46:03.939Z,6.30
2018-11-29T02:48:23.831Z,6.30
2018-11-29T02:50:29.418Z,6.30
2018-11-29T02:52:32.748Z,6.30
2018-11-29T02:54:36.978Z,6.40
2018-11-29T02:56:41.242Z,6.40
2018-11-29T02:58:45.516Z,6.40
2018-11-29T03:00:49.751Z,6.40
2018-11-29T03:02:53.944Z,6.40
2018-11-29T03:04:58.152Z,6.40
2018-11-29T03:07:02.385Z,6.40
2018-11-29T03:09:06.884Z,6.50
2018-11-29T03:11:11.097Z,6.40
2018-11-29T03:13:15.372Z,6.40
2018-11-29T03:15:19.629Z,6.50
2018-11-29T03:17:23.758Z,6.50
2018-11-29T03:19:27.952Z,6.50
2018-11-29T03:21:32.192Z,6.50
2018-11-29T03:23:36.339Z,6.50
2018-11-29T03:25:40.622Z,6.50
2018-11-29T03:27:45.384Z,6.50
2018-11-29T03:29:49.566Z,6.50
2018-11-29T03:31:53.770Z,6.50
2018-11-29T03:33:58.029Z,6.50
2018-11-29T03:36:02.231Z,6.60
2018-11-29T03:38:07.288Z,6.50
2018-11-29T03:40:13.509Z,6.50
2018-11-29T03:42:18.075Z,6.60
2018-11-29T03:44:22.618Z,6.60
2018-11-29T03:46:27.072Z,6.60
2018-11-29T03:48:31.459Z,6.60
2018-11-29T03:50:36.247Z,6.60
2018-11-29T03:52:40.987Z,6.60
2018-11-29T03:54:45.764Z,6.60
2018-11-29T03:56:50.488Z,6.60
2018-11-29T03:58:55.165Z,6.60
2018-11-29T04:00:59.516Z,6.60
2018-11-29T04:03:04.188Z,6.60
2018-11-29T04:05:08.715Z,6.70
2018-11-29T04:07:12.889Z,6.70
2018-11-29T04:09:17.317Z,6.70
2018-11-29T04:11:21.492Z,6.70
2018-11-29T04:13:25.778Z,6.70
2018-11-29T04:15:29.970Z,6.70
2018-11-29T04:17:40.364Z,6.70
2018-11-29T04:19:38.481Z,6.70
2018-11-29T04:21:42.689Z,6.70
2018-11-29T04:23:46.846Z,6.70
2018-11-29T04:25:51.149Z,6.70
2018-11-29T04:27:55.385Z,6.70
2018-11-29T04:29:59.549Z,6.70
2018-11-29T04:32:03.825Z,6.70
2018-11-29T04:34:08.057Z,6.70
2018-11-29T04:36:12.282Z,6.70
2018-11-29T04:38:16.627Z,6.80
2018-11-29T04:40:20.827Z,6.70
2018-11-29T04:42:25.219Z,6.70
2018-11-29T04:44:29.483Z,6.80
2018-11-29T04:46:42.789Z,6.80
2018-11-29T04:48:46.965Z,6.70
2018-11-29T04:50:51.114Z,6.80
2018-11-29T04:52:55.322Z,6.80
2018-11-29T04:54:59.465Z,6.80
2018-11-29T04:57:03.720Z,6.80
2018-11-29T04:59:08.311Z,6.80
2018-11-29T05:01:12.680Z,6.80
2018-11-29T05:03:16.867Z,6.80
2018-11-29T05:05:21.091Z,6.80
2018-11-29T05:07:25.270Z,6.80
2018-11-29T05:09:29.602Z,6.90
2018-11-29T05:11:33.826Z,6.80
2018-11-29T05:13:38.072Z,6.90
2018-11-29T05:15:42.495Z,6.90
2018-11-29T05:17:46.720Z,6.90
2018-11-29T05:19:50.873Z,6.90
2018-11-29T05:21:55.193Z,6.90
2018-11-29T05:23:59.421Z,6.90
2018-11-29T05:26:03.787Z,7.00
2018-11-29T05:28:08.029Z,7.00
2018-11-29T05:30:13.554Z,6.90
2018-11-29T05:32:17.737Z,7.00
2018-11-29T05:34:21.947Z,7.00
2018-11-29T05:36:26.220Z,7.00
2018-11-29T05:38:30.503Z,7.00
2018-11-29T05:40:34.818Z,7.00
2018-11-29T05:42:39.100Z,7.10
2018-11-29T05:44:43.317Z,7.00
2018-11-29T05:46:47.474Z,7.00
2018-11-29T05:48:51.712Z,7.00
2018-11-29T05:50:55.960Z,7.00
2018-11-29T05:53:00.582Z,7.00
2018-11-29T05:55:06.248Z,7.10
2018-11-29T05:57:10.942Z,7.10
2018-11-29T05:59:15.284Z,7.10
2018-11-29T06:01:25.310Z,7.00
2018-11-29T06:03:29.886Z,7.10
2018-11-29T06:05:34.292Z,7.10
2018-11-29T06:07:38.575Z,7.20
2018-11-29T06:09:42.829Z,7.20
2018-11-29T06:11:47.037Z,7.10
2018-11-29T06:13:51.207Z,7.10
2018-11-29T06:15:55.452Z,7.20
2018-11-29T06:17:59.704Z,7.20
2018-11-29T06:20:04.353Z,7.20
2018-11-29T06:22:08.510Z,7.10
2018-11-29T06:24:13.678Z,7.20
2018-11-29T06:26:17.089Z,7.20
2018-11-29T06:28:22.024Z,7.20
2018-11-29T06:30:26.761Z,7.20
2018-11-29T06:32:31.329Z,7.20
2018-11-29T06:34:35.570Z,7.20
2018-11-29T06:36:39.919Z,7.20
2018-11-29T06:38:44.680Z,7.30
2018-11-29T06:40:49.034Z,7.20
2018-11-29T06:42:53.271Z,7.20
2018-11-29T06:44:57.525Z,7.20
2018-11-29T06:47:01.716Z,7.20
2018-11-29T06:49:06.126Z,7.20
2018-11-29T06:51:10.370Z,7.20
2018-11-29T06:53:19.503Z,7.20
2018-11-29T06:55:24.567Z,7.30
2018-11-29T06:57:28.685Z,7.30
2018-11-29T06:59:32.956Z,7.30
2018-11-29T07:01:37.201Z,7.30
2018-11-29T07:03:41.553Z,7.30
2018-11-29T07:05:45.722Z,7.30
2018-11-29T07:07:49.860Z,7.30
2018-11-29T07:09:54.069Z,7.30
2018-11-29T07:11:58.281Z,7.30
2018-11-29T07:14:02.567Z,7.40
2018-11-29T07:16:07.312Z,7.40
2018-11-29T07:18:11.474Z,7.40
2018-11-29T07:20:17.216Z,7.40
2018-11-29T07:22:21.457Z,7.40
2018-11-29T07:24:25.958Z,7.50
2018-11-29T07:26:30.161Z,7.40
2018-11-29T07:28:34.317Z,7.40
2018-11-29T07:30:38.424Z,7.50
2018-11-29T07:32:42.759Z,7.40
2018-11-29T07:34:46.962Z,7.40
2018-11-29T07:36:51.171Z,7.50
2018-11-29T07:38:55.432Z,7.50
2018-11-29T07:40:59.602Z,7.50
2018-11-29T07:43:03.774Z,7.50
2018-11-29T07:45:18.754Z,7.50
2018-11-29T07:47:22.996Z,7.50
2018-11-29T07:49:27.180Z,7.50
2018-11-29T07:51:31.376Z,7.50
2018-11-29T07:53:35.568Z,7.50
2018-11-29T07:55:39.802Z,7.50
2018-11-29T07:57:44.537Z,7.50
2018-11-29T07:59:48.724Z,7.60
2018-11-29T08:01:52.922Z,7.50
2018-11-29T08:03:57.149Z,7.50
2018-11-29T08:06:01.421Z,7.60
2018-11-29T08:08:05.913Z,7.50
2018-11-29T08:10:14.460Z,7.60
2018-11-29T08:12:18.632Z,7.60
2018-11-29T08:14:22.893Z,7.60
2018-11-29T08:16:27.064Z,7.60
2018-11-29T08:18:31.437Z,7.60
2018-11-29T08:20:35.619Z,7.60
2018-11-29T08:22:39.929Z,7.60
2018-11-29T08:24:44.192Z,7.60
2018-11-29T08:26:48.448Z,7.60
2018-11-29T08:28:52.692Z,7.60
2018-11-29T08:30:56.929Z,7.70
2018-11-29T08:33:01.143Z,7.60
2018-11-29T08:35:05.489Z,7.60
2018-11-29T08:37:09.596Z,7.70
2018-11-29T08:39:13.805Z,7.70
2018-11-29T08:41:17.992Z,7.70
2018-11-29T08:43:22.293Z,7.70
2018-11-29T08:45:26.447Z,7.70
2018-11-29T08:47:30.643Z,7.70
2018-11-29T08:49:34.874Z,7.70
2018-11-29T08:51:39.067Z,7.70
2018-11-29T08:53:43.293Z,7.70
2018-11-29T08:55:47.472Z,7.80
2018-11-29T08:57:51.710Z,7.80
2018-11-29T08:59:55.921Z,7.80
2018-11-29T09:02:00.104Z,7.80
2018-11-29T09:04:04.365Z,7.80
2018-11-29T09:06:08.607Z,7.90
2018-11-29T09:08:12.792Z,7.80
2018-11-29T09:10:18.089Z,7.80
2018-11-29T09:12:22.364Z,7.80
2018-11-29T09:14:26.545Z,7.90
2018-11-29T09:16:30.800Z,7.90
2018-11-29T09:18:35.167Z,7.90
2018-11-29T09:20:39.288Z,7.90
2018-11-29T09:22:43.713Z,7.90
2018-11-29T09:24:47.887Z,7.90
2018-11-29T09:26:52.107Z,7.90
2018-11-29T09:28:56.312Z,8.00
2018-11-29T09:31:00.585Z,8.00
2018-11-29T09:33:04.987Z,8.00
2018-11-29T09:35:09.249Z,8.00
2018-11-29T09:37:13.509Z,8.00
2018-11-29T09:39:17.677Z,8.00
2018-11-29T09:41:21.837Z,8.00
2018-11-29T09:43:26.107Z,8.00
2018-11-29T09:45:30.345Z,8.00
2018-11-29T09:47:34.558Z,8.00
2018-11-29T09:49:38.826Z,8.10
2018-11-29T09:51:42.989Z,8.10
2018-11-29T09:53:47.159Z,8.10
2018-11-29T09:55:51.373Z,8.10
2018-11-29T09:57:55.598Z,8.10
2018-11-29T09:59:59.849Z,8.10
2018-11-29T10:02:04.032Z,8.10
2018-11-29T10:04:08.291Z,8.10
2018-11-29T10:06:12.515Z,8.10
2018-11-29T10:08:18.630Z,8.10
2018-11-29T10:10:22.944Z,8.10
2018-11-29T10:12:27.224Z,8.20
2018-11-29T10:14:31.457Z,8.20
2018-11-29T10:16:35.691Z,8.20
2018-11-29T10:18:39.886Z,8.20
2018-11-29T10:20:44.128Z,8.20
2018-11-29T10:22:48.310Z,8.20
2018-11-29T10:24:52.468Z,8.20
2018-11-29T10:26:56.662Z,8.20
2018-11-29T10:29:00.901Z,8.20
2018-11-29T10:31:06.036Z,8.20
2018-11-29T10:33:10.180Z,8.30
2018-11-29T10:35:14.524Z,8.30
2018-11-29T10:37:18.696Z,8.20
2018-11-29T10:39:22.889Z,8.30
2018-11-29T10:41:27.123Z,8.30
2018-11-29T10:43:31.290Z,8.30
2018-11-29T10:45:35.465Z,8.30
2018-11-29T10:47:40.122Z,8.30
2018-11-29T10:49:44.340Z,8.30
2018-11-29T10:51:48.567Z,8.40
2018-11-29T10:53:52.858Z,8.40
2018-11-29T10:55:57.140Z,8.30
2018-11-29T10:58:01.333Z,8.40
2018-11-29T11:00:09.169Z,8.40
2018-11-29T11:02:18.387Z,8.40
2018-11-29T11:04:22.532Z,8.40
2018-11-29T11:06:26.736Z,8.40
2018-11-29T11:08:31.024Z,8.40
2018-11-29T11:10:35.263Z,8.40
2018-11-29T11:12:39.425Z,8.50
2018-11-29T11:14:43.652Z,8.50
2018-11-29T11:16:47.869Z,8.50
2018-11-29T11:18:52.380Z,8.50
2018-11-29T11:20:56.597Z,8.50
2018-11-29T11:23:00.885Z,8.60
2018-11-29T11:25:05.894Z,8.50
2018-11-29T11:27:10.165Z,8.50
2018-11-29T11:29:14.400Z,8.50
2018-11-29T11:31:18.629Z,8.50
2018-11-29T11:33:22.930Z,8.50
2018-11-29T11:35:29.202Z,8.50
2018-11-29T11:37:33.437Z,8.50
2018-11-29T11:39:37.637Z,8.60
2018-11-29T11:41:41.787Z,8.60
2018-11-29T11:43:46.005Z,8.50
2018-11-29T11:45:50.210Z,8.60
2018-11-29T11:47:54.432Z,8.60
2018-11-29T11:49:58.597Z,8.60
2018-11-29T11:52:02.804Z,8.60
2018-11-29T11:54:07.150Z,8.60
2018-11-29T11:56:11.328Z,8.60
2018-11-29T11:58:15.554Z,8.60
2018-11-29T12:00:21.906Z,8.60
2018-11-29T12:02:27.518Z,8.60
2018-11-29T12:04:30.300Z,8.70
2018-11-29T12:06:34.494Z,8.70
2018-11-29T12:08:38.671Z,8.70
2018-11-29T12:10:43.942Z,8.70
2018-11-29T12:12:48.186Z,8.70
2018-11-29T12:14:52.343Z,8.70
2018-11-29T12:16:56.628Z,8.70
2018-11-29T12:19:02.434Z,8.70
2018-11-29T12:21:05.347Z,8.70
2018-11-29T12:23:09.757Z,8.80
2018-11-29T12:25:16.623Z,8.80
2018-11-29T12:27:20.891Z,8.70
2018-11-29T12:29:25.123Z,8.80
2018-11-29T12:31:29.283Z,8.70
2018-11-29T12:33:33.546Z,8.70
2018-11-29T12:35:37.777Z,8.80
2018-11-29T12:37:42.059Z,8.80
2018-11-29T12:39:46.279Z,8.80
2018-11-29T12:41:50.472Z,8.80
2018-11-29T12:43:54.669Z,8.70
2018-11-29T12:45:58.928Z,8.80
2018-11-29T12:48:04.264Z,8.80
2018-11-29T12:50:15.814Z,8.90
2018-11-29T12:52:19.965Z,8.80
2018-11-29T12:54:24.163Z,8.80
2018-11-29T12:56:28.442Z,8.80
2018-11-29T12:58:32.598Z,8.80
2018-11-29T13:00:36.790Z,8.80
2018-11-29T13:02:47.900Z,8.80
2018-11-29T13:04:52.032Z,8.80
2018-11-29T13:06:56.316Z,8.80
2018-11-29T13:09:03.860Z,8.80
2018-11-29T13:11:10.721Z,8.80
2018-11-29T13:13:12.298Z,8.80
2018-11-29T13:15:18.645Z,8.80
2018-11-29T13:17:24.780Z,8.80
2018-11-29T13:19:29.667Z,8.80
2018-11-29T13:21:34.914Z,8.80
2018-11-29T13:23:39.164Z,8.80
2018-11-29T13:25:43.314Z,8.80
2018-11-29T13:27:47.656Z,8.80
2018-11-29T13:29:51.897Z,8.80
2018-11-29T13:31:56.084Z,8.90
2018-11-29T13:34:00.255Z,8.80
2018-11-29T13:36:04.458Z,8.80
2018-11-29T13:38:12.149Z,8.90
2018-11-29T13:42:20.445Z,8.90
2018-11-29T13:44:24.638Z,8.90
2018-11-29T13:46:28.797Z,8.90
2018-11-29T13:48:32.985Z,8.90
2018-11-29T13:50:37.187Z,8.90
2018-11-29T13:52:41.497Z,8.90
2018-11-29T13:54:45.816Z,8.80
2018-11-29T13:56:50.032Z,8.90
2018-11-29T13:58:54.278Z,8.90
2018-11-29T14:00:58.476Z,8.90
2018-11-29T14:03:06.484Z,8.90
2018-11-29T14:05:11.302Z,8.80
2018-11-29T14:07:15.498Z,8.90
2018-11-29T14:09:19.699Z,8.80
2018-11-29T14:11:23.939Z,8.90
2018-11-29T14:13:28.247Z,8.90
2018-11-29T14:15:32.493Z,8.90
2018-11-29T14:17:36.666Z,8.80
2018-11-29T14:19:40.849Z,8.90
2018-11-29T14:21:45.024Z,8.90
2018-11-29T14:23:49.213Z,8.80
2018-11-29T14:25:53.374Z,8.90
2018-11-29T14:27:58.274Z,8.80
2018-11-29T14:30:02.470Z,8.90
2018-11-29T14:32:06.846Z,8.80
2018-11-29T14:34:10.972Z,8.90
2018-11-29T14:36:15.129Z,8.80
2018-11-29T14:38:19.359Z,8.90
2018-11-29T14:40:26.483Z,8.90
2018-11-29T14:42:30.734Z,8.90
2018-11-29T14:44:34.982Z,8.90
2018-11-29T14:46:39.142Z,8.90
2018-11-29T14:48:43.408Z,8.80
2018-11-29T14:50:47.902Z,8.90
2018-11-29T14:52:52.037Z,8.90
2018-11-29T14:54:56.407Z,8.90
2018-11-29T14:57:00.902Z,8.90
2018-11-29T14:59:05.334Z,8.90
2018-11-29T15:01:09.582Z,8.90
2018-11-29T15:03:16.259Z,8.90
2018-11-29T15:05:24.149Z,8.80
2018-11-29T15:07:28.293Z,8.90
2018-11-29T15:09:32.541Z,8.90
2018-11-29T15:11:36.778Z,8.90
2018-11-29T15:13:41.765Z,8.90
2018-11-29T15:15:46.023Z,8.90
2018-11-29T15:17:51.160Z,8.90
2018-11-29T15:19:55.438Z,8.90
2018-11-29T15:21:59.613Z,8.90
2018-11-29T15:24:03.814Z,8.90
2018-11-29T15:26:08.030Z,8.90
2018-11-29T15:28:12.233Z,8.90
2018-11-29T15:30:20.498Z,8.90
2018-11-29T15:32:26.202Z,8.90
2018-11-29T15:34:30.347Z,8.90
2018-11-29T15:36:34.756Z,8.90
2018-11-29T15:38:39.039Z,8.90
2018-11-29T15:40:43.225Z,8.90
2018-11-29T15:42:51.058Z,8.90
2018-11-29T15:44:55.887Z,8.90
2018-11-29T15:47:00.571Z,8.90
2018-11-29T15:49:04.785Z,8.90
2018-11-29T15:51:09.383Z,8.90
2018-11-29T15:53:13.601Z,8.90
2018-11-29T15:55:20.395Z,8.90
2018-11-29T15:57:24.669Z,8.90
2018-11-29T15:59:28.958Z,9.00
2018-11-29T16:01:33.148Z,9.00
2018-11-29T16:03:37.384Z,9.00
2018-11-29T16:05:41.697Z,9.00
2018-11-29T16:07:45.869Z,9.00
2018-11-29T16:09:50.097Z,9.00
2018-11-29T16:11:54.273Z,9.00
2018-11-29T16:13:58.689Z,9.00
2018-11-29T16:16:03.521Z,9.00
2018-11-29T16:18:07.694Z,9.00
2018-11-29T16:20:29.812Z,9.00
2018-11-29T16:22:33.936Z,9.00
2018-11-29T16:24:38.191Z,9.00
2018-11-29T16:26:42.403Z,9.00
2018-11-29T16:28:46.579Z,9.00
2018-11-29T16:30:56.813Z,9.00
2018-11-29T16:33:09.553Z,9.00
2018-11-29T16:35:13.937Z,9.00
2018-11-29T16:37:18.319Z,9.00
2018-11-29T16:39:22.579Z,9.00
2018-11-29T16:41:26.735Z,9.00
2018-11-29T16:43:30.977Z,9.00
2018-11-29T16:45:35.313Z,9.00
2018-11-29T16:47:39.829Z,9.00
2018-11-29T16:49:43.999Z,9.00
2018-11-29T16:51:48.188Z,9.00
2018-11-29T16:53:52.328Z,9.00
2018-11-29T16:55:56.523Z,9.00
2018-11-29T16:58:02.702Z,9.00
2018-11-29T17:00:14.051Z,9.00
2018-11-29T17:02:18.214Z,9.00
2018-11-29T17:04:22.423Z,9.00
2018-11-29T17:06:26.572Z,9.00
2018-11-29T17:08:30.766Z,9.00
2018-11-29T17:10:35.060Z,9.00
2018-11-29T17:12:39.588Z,8.90
2018-11-29T17:14:43.815Z,9.00
2018-11-29T17:16:47.957Z,9.00
2018-11-29T17:18:52.128Z,9.00
2018-11-29T17:20:56.353Z,9.00
2018-11-29T17:23:00.606Z,9.00
2018-11-29T17:25:05.042Z,9.00
2018-11-29T17:27:09.280Z,9.00
2018-11-29T17:29:13.464Z,9.00
2018-11-29T17:31:17.822Z,9.00
2018-11-29T17:33:22.037Z,9.00
2018-11-29T17:35:26.206Z,9.00
2018-11-29T17:37:30.420Z,9.00
2018-11-29T17:39:34.632Z,9.00
2018-11-29T17:41:38.904Z,9.00
2018-11-29T17:43:43.123Z,9.00
2018-11-29T17:45:47.297Z,9.00
2018-11-29T17:47:52.835Z,9.00
2018-11-29T17:49:57.098Z,8.90
2018-11-29T17:52:01.343Z,9.00
2018-11-29T17:54:05.778Z,9.00
2018-11-29T17:56:10.001Z,9.00
2018-11-29T17:58:16.095Z,9.00
2018-11-29T18:00:23.513Z,8.90
2018-11-29T18:02:27.831Z,8.90
2018-11-29T18:04:32.006Z,8.90
2018-11-29T18:06:36.214Z,8.90
2018-11-29T18:08:40.491Z,9.00
2018-11-29T18:10:44.844Z,9.00
2018-11-29T18:12:51.423Z,8.90
2018-11-29T18:14:55.643Z,8.90
2018-11-29T18:16:59.810Z,8.90
2018-11-29T18:19:03.979Z,8.90
2018-11-29T18:21:08.184Z,8.90
2018-11-29T18:23:12.553Z,8.90
2018-11-29T18:25:17.453Z,8.90
2018-11-29T18:27:21.617Z,8.90
2018-11-29T18:29:25.820Z,8.90
2018-11-29T18:31:29.996Z,8.90
2018-11-29T18:33:34.249Z,8.90
2018-11-29T18:35:38.468Z,8.90
2018-11-29T18:37:42.781Z,8.90
2018-11-29T18:39:46.997Z,8.90
2018-11-29T18:41:51.169Z,8.90
2018-11-29T18:43:55.400Z,8.80
2018-11-29T18:45:59.577Z,8.90
2018-11-29T18:48:03.818Z,8.80
2018-11-29T18:50:13.144Z,8.90
2018-11-29T18:52:17.257Z,8.80
2018-11-29T18:54:21.460Z,8.80
2018-11-29T18:56:25.657Z,8.80
2018-11-29T18:58:29.856Z,8.80
2018-11-29T19:00:35.992Z,8.80
2018-11-29T19:02:40.247Z,8.90
2018-11-29T19:04:44.465Z,8.80
2018-11-29T19:06:48.726Z,8.80
2018-11-29T19:08:52.844Z,8.80
2018-11-29T19:10:57.085Z,8.80
2018-11-29T19:13:09.618Z,8.90
2018-11-29T19:15:14.122Z,8.90
2018-11-29T19:17:18.342Z,8.80
2018-11-29T19:19:22.551Z,8.80
2018-11-29T19:21:26.721Z,8.90
2018-11-29T19:23:30.944Z,8.80
2018-11-29T19:25:35.167Z,8.80
2018-11-29T19:27:39.544Z,8.80
2018-11-29T19:29:43.744Z,8.90
2018-11-29T19:31:48.106Z,8.90
2018-11-29T19:33:52.160Z,8.80
2018-11-29T19:35:56.619Z,8.80
2018-11-29T19:38:00.832Z,8.90
2018-11-29T19:40:07.527Z,8.80
2018-11-29T19:42:11.815Z,8.80
2018-11-29T19:44:15.990Z,8.90
2018-11-29T19:46:20.283Z,8.90
2018-11-29T19:48:24.437Z,8.90
2018-11-29T19:50:28.679Z,8.90
2018-11-29T19:52:32.971Z,8.90
2018-11-29T19:54:37.256Z,8.90
2018-11-29T19:56:41.395Z,8.90
2018-11-29T19:58:45.589Z,8.90
2018-11-29T20:00:49.864Z,8.90
2018-11-29T20:02:55.369Z,8.90
2018-11-29T20:04:59.573Z,8.90
2018-11-29T20:07:03.848Z,8.90
2018-11-29T20:09:08.133Z,8.90
2018-11-29T20:11:12.308Z,9.00
2018-11-29T20:13:16.662Z,9.00
2018-11-29T20:15:21.279Z,8.90
2018-11-29T20:17:25.512Z,8.90
2018-11-29T20:19:29.694Z,8.90
2018-11-29T20:21:33.983Z,8.90
2018-11-29T20:23:38.236Z,8.90
2018-11-29T20:25:44.009Z,8.90
2018-11-29T20:27:48.174Z,8.90
2018-11-29T20:29:52.357Z,9.00
2018-11-29T20:31:56.491Z,9.00
2018-11-29T20:34:00.843Z,9.00
2018-11-29T20:36:05.268Z,8.90
2018-11-29T20:38:09.509Z,9.00
2018-11-29T20:40:21.166Z,8.90
2018-11-29T20:42:25.375Z,8.90
2018-11-29T20:44:29.608Z,8.90
2018-11-29T20:46:33.793Z,8.90
2018-11-29T20:48:38.012Z,8.90
2018-11-29T20:50:42.180Z,8.90
2018-11-29T20:52:47.068Z,8.90
2018-11-29T20:54:51.274Z,8.90
2018-11-29T20:56:55.474Z,8.90
2018-11-29T20:58:59.637Z,8.90
2018-11-29T21:01:03.843Z,8.90
2018-11-29T21:03:09.176Z,8.90
2018-11-29T21:05:17.187Z,8.90
2018-11-29T21:07:21.397Z,8.90
2018-11-29T21:09:25.581Z,8.90
2018-11-29T21:11:29.746Z,8.90
2018-11-29T21:13:33.955Z,8.90
2018-11-29T21:15:39.406Z,8.90
2018-11-29T21:17:43.665Z,8.90
2018-11-29T21:19:47.977Z,8.90
2018-11-29T21:21:52.149Z,8.90
2018-11-29T21:23:56.279Z,8.90
2018-11-29T21:26:04.474Z,8.90
2018-11-29T21:28:08.733Z,8.90
2018-11-29T21:30:15.660Z,8.90
2018-11-29T21:32:19.913Z,8.90
2018-11-29T21:34:24.132Z,8.90
2018-11-29T21:36:28.350Z,8.90
2018-11-29T21:38:32.505Z,8.90
2018-11-29T21:40:36.770Z,8.90
2018-11-29T21:42:40.998Z,8.90
2018-11-29T21:44:45.173Z,8.90
2018-11-29T21:46:49.344Z,8.90
2018-11-29T21:48:53.506Z,8.90
2018-11-29T21:50:57.696Z,8.90
2018-11-29T21:53:01.903Z,8.90
2018-11-29T21:55:07.819Z,8.90
2018-11-29T21:57:11.954Z,8.90
2018-11-29T21:59:16.165Z,8.90
2018-11-29T22:01:20.401Z,8.90
2018-11-29T22:03:24.601Z,8.80
2018-11-29T22:05:28.755Z,8.90
2018-11-29T22:07:32.980Z,8.90
2018-11-29T22:09:38.021Z,8.90
2018-11-29T22:11:42.194Z,8.90
2018-11-29T22:13:46.357Z,8.90
2018-11-29T22:15:50.509Z,8.90
2018-11-29T22:18:27.380Z,8.90
2018-11-29T22:20:31.605Z,8.90
2018-11-29T22:22:35.870Z,8.90
2018-11-29T22:24:40.007Z,8.90
2018-11-29T22:26:44.135Z,8.90
2018-11-29T22:28:48.367Z,8.90
2018-11-29T22:30:52.646Z,8.90
2018-11-29T22:32:56.835Z,8.90
2018-11-29T22:35:01.004Z,9.00
2018-11-29T22:37:06.280Z,8.90
2018-11-29T22:39:11.073Z,8.90
2018-11-29T22:41:15.268Z,8.90
2018-11-29T22:43:19.638Z,8.90
2018-11-29T22:45:24.798Z,8.90
2018-11-29T22:47:29.132Z,8.90
2018-11-29T22:49:34.187Z,8.90
2018-11-29T22:51:38.765Z,8.90
2018-11-29T22:53:43.669Z,8.90
2018-11-29T22:55:48.443Z,8.90
2018-11-29T22:57:53.126Z,8.90
2018-11-29T22:59:58.329Z,8.90
2018-11-29T23:02:02.546Z,8.90
2018-11-29T23:04:08.772Z,8.90
2018-11-29T23:06:13.861Z,8.90
2018-11-29T23:08:18.620Z,8.90
2018-11-29T23:10:23.068Z,8.90
2018-11-29T23:12:28.463Z,8.90
2018-11-29T23:14:33.612Z,8.90
2018-11-29T23:16:38.312Z,8.90
2018-11-29T23:18:43.657Z,8.90
2018-11-29T23:20:48.837Z,8.90
2018-11-29T23:22:53.433Z,8.90
2018-11-29T23:24:57.669Z,8.90
2018-11-29T23:27:01.939Z,8.80
2018-11-29T23:29:06.554Z,8.80
2018-11-29T23:31:16.481Z,8.80
2018-11-29T23:33:21.206Z,8.80
2018-11-29T23:35:25.945Z,8.80
2018-11-29T23:37:30.201Z,8.80
2018-11-29T23:39:35.253Z,8.80
2018-11-29T23:41:39.755Z,8.80
2018-11-29T23:43:44.224Z,8.80
2018-11-29T23:45:48.653Z,8.80
2018-11-29T23:47:53.037Z,8.80
2018-11-29T23:49:57.384Z,8.80
2018-11-29T23:52:01.724Z,8.80
2018-11-29T23:54:06.015Z,8.70
2018-11-29T23:56:10.350Z,8.80
2018-11-29T23:58:14.686Z,8.80
